createdAt,value
2022-10-10T00:01:32.909Z,9.40
2022-10-10T00:04:01.298Z,10.83
2022-10-10T00:06:33.003Z,11.13
2022-10-10T00:09:02.676Z,8.47
2022-10-10T00:11:30.774Z,12.93
2022-10-10T00:13:58.959Z,11.57
2022-10-10T00:16:41.041Z,10.07
2022-10-10T00:19:08.729Z,11.60
2022-10-10T00:21:36.364Z,7.80
2022-10-10T00:24:04.478Z,6.97
2022-10-10T00:26:32.240Z,7.90
2022-10-10T00:28:59.830Z,7.00
2022-10-10T00:31:27.370Z,7.63
2022-10-10T00:33:54.948Z,7.33
2022-10-10T00:36:22.563Z,6.97
2022-10-10T00:38:50.163Z,8.30
2022-10-10T00:41:19.058Z,9.70
2022-10-10T00:44:07.801Z,11.43
2022-10-10T00:46:35.964Z,11.60
2022-10-10T00:49:06.761Z,12.63
2022-10-10T00:51:34.420Z,11.53
2022-10-10T00:54:06.251Z,9.23
2022-10-10T00:56:43.478Z,8.23
2022-10-10T00:59:12.543Z,6.43
2022-10-10T01:01:41.154Z,8.27
2022-10-10T01:04:29.987Z,11.83
2022-10-10T01:07:03.088Z,8.20
2022-10-10T01:09:31.584Z,6.80
2022-10-10T01:12:17.978Z,7.83
2022-10-10T01:14:59.974Z,5.70
2022-10-10T01:17:34.941Z,5.30
2022-10-10T01:20:20.962Z,4.47
2022-10-10T01:22:54.675Z,4.50
2022-10-10T01:25:42.285Z,4.60
2022-10-10T01:28:53.299Z,4.67
2022-10-10T01:31:24.292Z,4.33
2022-10-10T01:34:07.439Z,4.30
2022-10-10T01:36:46.164Z,4.87
2022-10-10T01:39:21.167Z,4.70
2022-10-10T01:42:04.553Z,4.20
2022-10-10T01:44:35.211Z,4.30
2022-10-10T01:47:02.812Z,4.53
2022-10-10T01:49:34.964Z,4.70
2022-10-10T01:52:14.615Z,4.57
2022-10-10T01:55:11.630Z,4.80
2022-10-10T01:57:57.034Z,5.40
2022-10-10T02:00:24.986Z,5.70
2022-10-10T02:03:06.747Z,5.87
2022-10-10T02:05:50.696Z,5.57
2022-10-10T02:08:40.109Z,5.40
2022-10-10T02:11:12.345Z,5.37
2022-10-10T02:13:47.457Z,5.40
2022-10-10T02:16:38.184Z,5.67
2022-10-10T02:19:12.851Z,5.90
2022-10-10T02:21:41.640Z,6.00
2022-10-10T02:24:12.058Z,5.47
2022-10-10T02:26:43.897Z,5.00
2022-10-10T02:29:18.156Z,6.57
2022-10-10T02:32:02.323Z,5.97
2022-10-10T02:34:35.779Z,5.93
2022-10-10T02:37:10.655Z,6.10
2022-10-10T02:39:46.306Z,5.67
2022-10-10T02:42:16.756Z,5.20
2022-10-10T02:44:48.284Z,5.50
2022-10-10T02:47:16.566Z,5.73
2022-10-10T02:49:44.237Z,5.30
2022-10-10T02:52:14.857Z,5.50
2022-10-10T02:54:42.856Z,5.47
2022-10-10T02:57:11.026Z,6.13
2022-10-10T02:59:38.597Z,5.77
2022-10-10T03:02:06.446Z,5.93
2022-10-10T03:04:35.960Z,5.50
2022-10-10T03:07:04.310Z,6.17
2022-10-10T03:09:31.936Z,6.27
2022-10-10T03:11:59.502Z,6.67
2022-10-10T03:14:27.154Z,8.13
2022-10-10T03:16:54.754Z,8.33
2022-10-10T03:19:22.348Z,8.17
2022-10-10T03:21:49.917Z,8.67
2022-10-10T03:24:17.497Z,7.93
2022-10-10T03:26:45.053Z,8.80
2022-10-10T03:29:12.920Z,6.77
2022-10-10T03:31:42.593Z,7.57
2022-10-10T03:34:10.390Z,9.23
2022-10-10T03:36:41.055Z,10.07
2022-10-10T03:39:09.336Z,10.87
2022-10-10T03:41:36.911Z,7.10
2022-10-10T03:44:04.517Z,6.53
2022-10-10T03:46:32.108Z,7.07
2022-10-10T03:48:59.675Z,6.40
2022-10-10T03:51:27.201Z,7.23
2022-10-10T03:53:54.963Z,7.33
2022-10-10T03:56:24.648Z,6.03
2022-10-10T03:58:52.202Z,6.40
2022-10-10T04:01:19.913Z,6.30
2022-10-10T04:03:51.866Z,5.80
2022-10-10T04:06:19.825Z,6.10
2022-10-10T04:08:47.565Z,5.20
2022-10-10T04:11:15.145Z,5.80
2022-10-10T04:13:42.827Z,5.60
2022-10-10T04:16:10.507Z,5.50
2022-10-10T04:18:38.111Z,5.30
2022-10-10T04:21:08.297Z,5.10
2022-10-10T04:23:36.122Z,5.73
2022-10-10T04:26:03.787Z,5.90
2022-10-10T04:28:31.429Z,6.30
2022-10-10T04:30:58.995Z,6.07
2022-10-10T04:33:26.535Z,5.90
2022-10-10T04:35:57.056Z,6.03
2022-10-10T04:38:24.641Z,6.43
2022-10-10T04:40:52.245Z,6.00
2022-10-10T04:43:19.986Z,5.70
2022-10-10T04:45:47.710Z,5.23
2022-10-10T04:48:15.358Z,5.70
2022-10-10T04:50:43.027Z,6.30
2022-10-10T04:53:11.566Z,6.67
2022-10-10T04:55:41.857Z,6.33
2022-10-10T04:58:09.435Z,5.27
2022-10-10T05:00:38.948Z,5.93
2022-10-10T05:03:07.172Z,6.53
2022-10-10T05:05:35.012Z,7.33
2022-10-10T05:08:02.760Z,7.50
2022-10-10T05:10:30.457Z,7.27
2022-10-10T05:12:58.045Z,7.97
2022-10-10T05:15:26.913Z,8.73
2022-10-10T05:17:54.592Z,7.53
2022-10-10T05:20:22.428Z,7.70
2022-10-10T05:22:50.194Z,7.37
2022-10-10T05:25:18.137Z,6.43
2022-10-10T05:27:48.941Z,6.67
2022-10-10T05:30:17.025Z,6.73
2022-10-10T05:32:44.567Z,6.43
2022-10-10T05:35:12.148Z,6.37
2022-10-10T05:37:39.918Z,6.80
2022-10-10T05:40:08.069Z,6.63
2022-10-10T05:42:35.634Z,8.90
2022-10-10T05:45:09.424Z,8.40
2022-10-10T05:47:37.346Z,7.57
2022-10-10T05:50:05.804Z,7.70
2022-10-10T05:52:35.186Z,7.53
2022-10-10T05:55:03.139Z,7.43
2022-10-10T05:57:30.732Z,6.50
2022-10-10T05:59:58.284Z,6.87
2022-10-10T06:02:25.885Z,6.73
2022-10-10T06:04:53.510Z,6.20
2022-10-10T06:07:21.053Z,6.83
2022-10-10T06:09:48.622Z,6.80
2022-10-10T06:12:16.145Z,7.00
2022-10-10T06:14:43.901Z,8.43
2022-10-10T06:17:11.450Z,7.77
2022-10-10T06:19:39.039Z,7.67
2022-10-10T06:22:12.584Z,8.63
2022-10-10T06:24:40.102Z,8.83
2022-10-10T06:27:07.691Z,8.00
2022-10-10T06:29:35.253Z,8.90
2022-10-10T06:32:06.284Z,8.37
2022-10-10T06:34:35.864Z,8.57
2022-10-10T06:37:03.465Z,7.70
2022-10-10T06:39:31.152Z,7.93
2022-10-10T06:41:59.226Z,9.50
2022-10-10T06:44:26.811Z,8.73
2022-10-10T06:46:54.373Z,8.33
2022-10-10T06:49:22.013Z,7.80
2022-10-10T06:51:49.536Z,7.23
2022-10-10T06:54:17.090Z,6.53
2022-10-10T06:56:46.200Z,7.00
2022-10-10T06:59:13.721Z,7.33
2022-10-10T07:01:43.707Z,6.87
2022-10-10T07:04:12.916Z,6.90
2022-10-10T07:06:43.559Z,6.60
2022-10-10T07:09:11.243Z,6.93
2022-10-10T07:11:39.479Z,7.00
2022-10-10T07:14:08.725Z,6.80
2022-10-10T07:16:36.309Z,6.47
2022-10-10T07:19:03.874Z,6.43
2022-10-10T07:21:31.635Z,6.50
2022-10-10T07:24:00.449Z,7.33
2022-10-10T07:26:36.911Z,6.27
2022-10-10T07:29:07.177Z,6.03
2022-10-10T07:31:34.815Z,6.23
2022-10-10T07:34:02.644Z,6.17
2022-10-10T07:36:32.645Z,5.90
2022-10-10T07:39:02.549Z,6.00
2022-10-10T07:41:30.088Z,5.87
2022-10-10T07:43:57.678Z,6.13
2022-10-10T07:46:25.398Z,6.20
2022-10-10T07:48:52.953Z,6.00
2022-10-10T07:51:20.513Z,5.77
2022-10-10T07:53:48.073Z,5.63
2022-10-10T07:56:15.608Z,6.50
2022-10-10T07:58:44.624Z,6.00
2022-10-10T08:01:13.461Z,6.23
2022-10-10T08:03:42.354Z,5.87
2022-10-10T08:06:12.708Z,5.87
2022-10-10T08:08:50.399Z,5.80
2022-10-10T08:11:23.209Z,5.83
2022-10-10T08:13:51.327Z,5.70
2022-10-10T08:16:19.510Z,5.30
2022-10-10T08:18:47.098Z,5.70
2022-10-10T08:21:17.197Z,5.63
2022-10-10T08:23:48.157Z,5.57
2022-10-10T08:26:17.316Z,5.17
2022-10-10T08:28:48.791Z,5.70
2022-10-10T08:31:19.374Z,5.60
2022-10-10T08:33:47.934Z,5.23
2022-10-10T08:36:19.492Z,5.10
2022-10-10T08:38:47.843Z,5.90
2022-10-10T08:41:30.124Z,5.63
2022-10-10T08:44:08.186Z,6.53
2022-10-10T08:46:44.560Z,5.40
2022-10-10T08:49:20.992Z,5.80
2022-10-10T08:51:58.352Z,6.00
2022-10-10T08:54:28.532Z,6.13
2022-10-10T08:57:00.624Z,6.07
2022-10-10T08:59:34.782Z,5.63
2022-10-10T09:05:40.625Z,6.03
2022-10-10T09:08:31.633Z,5.70
2022-10-10T09:11:07.634Z,5.80
2022-10-10T09:13:59.509Z,6.03
2022-10-10T09:16:52.067Z,5.60
2022-10-10T09:19:44.085Z,5.77
2022-10-10T09:22:17.573Z,5.50
2022-10-10T09:24:59.027Z,5.83
2022-10-10T09:27:32.039Z,5.53
2022-10-10T09:30:10.479Z,6.20
2022-10-10T09:32:43.305Z,5.93
2022-10-10T09:35:19.255Z,5.97
2022-10-10T09:37:50.502Z,6.37
2022-10-10T09:40:27.187Z,5.70
2022-10-10T09:42:56.352Z,6.23
2022-10-10T09:45:34.507Z,5.20
2022-10-10T09:48:02.128Z,5.63
2022-10-10T09:50:30.564Z,5.87
2022-10-10T09:52:58.790Z,5.50
2022-10-10T09:55:39.046Z,5.23
2022-10-10T09:58:42.254Z,5.87
2022-10-10T10:01:23.475Z,5.50
2022-10-10T10:04:26.445Z,5.27
2022-10-10T10:07:18.468Z,4.77
2022-10-10T10:09:59.335Z,4.87
2022-10-10T10:12:47.693Z,5.10
2022-10-10T10:15:28.643Z,5.20
2022-10-10T10:18:17.703Z,5.43
2022-10-10T10:20:50.225Z,5.20
2022-10-10T10:23:36.186Z,5.20
2022-10-10T10:26:15.024Z,5.80
2022-10-10T10:28:43.168Z,5.33
2022-10-10T10:31:42.680Z,5.60
2022-10-10T10:34:33.273Z,5.07
2022-10-10T10:37:37.650Z,4.87
2022-10-10T10:40:28.901Z,4.83
2022-10-10T10:43:47.787Z,4.67
2022-10-10T10:46:35.771Z,4.43
2022-10-10T10:49:25.489Z,3.95
2022-10-10T10:52:25.095Z,4.18
2022-10-10T10:55:03.884Z,3.97
2022-10-10T10:58:10.520Z,4.55
2022-10-10T11:05:20.137Z,4.28
2022-10-10T11:07:21.309Z,3.67
2022-10-10T11:10:03.481Z,3.90
2022-10-10T11:13:18.090Z,4.28
2022-10-10T11:16:10.884Z,4.90
2022-10-10T11:18:49.910Z,4.82
2022-10-10T11:21:31.427Z,3.80
2022-10-10T11:24:13.272Z,4.25
2022-10-10T11:26:54.074Z,3.78
2022-10-10T11:29:29.577Z,4.03
2022-10-10T11:32:14.968Z,4.43
2022-10-10T11:34:51.979Z,3.85
2022-10-10T11:37:27.435Z,3.80
2022-10-10T11:40:05.162Z,4.35
2022-10-10T11:42:40.309Z,3.80
2022-10-10T11:45:18.353Z,3.75
2022-10-10T11:47:53.110Z,3.70
2022-10-10T11:50:30.207Z,3.90
2022-10-10T11:53:19.603Z,3.47
2022-10-10T11:55:57.142Z,3.55
2022-10-10T11:58:41.611Z,3.95
2022-10-10T12:01:12.414Z,3.60
2022-10-10T12:03:40.016Z,3.88
2022-10-10T12:06:30.800Z,3.47
2022-10-10T12:08:58.403Z,3.30
2022-10-10T12:11:50.762Z,3.60
2022-10-10T12:14:20.677Z,3.70
2022-10-10T12:16:48.809Z,3.38
2022-10-10T12:19:22.281Z,3.40
2022-10-10T12:21:55.988Z,3.83
2022-10-10T12:24:25.753Z,3.47
2022-10-10T12:26:53.276Z,3.90
2022-10-10T12:29:41.231Z,3.97
2022-10-10T12:32:14.665Z,3.80
2022-10-10T12:34:48.070Z,3.67
2022-10-10T12:37:27.781Z,3.67
2022-10-10T12:40:20.571Z,3.83
2022-10-10T12:42:48.136Z,3.97
2022-10-10T12:45:31.214Z,3.40
2022-10-10T12:48:06.622Z,3.10
2022-10-10T12:50:42.908Z,3.53
2022-10-10T12:53:13.614Z,3.85
2022-10-10T12:55:49.671Z,3.55
2022-10-10T12:58:42.112Z,3.70
2022-10-10T13:01:24.881Z,4.40
2022-10-10T13:03:54.688Z,4.25
2022-10-10T13:06:39.367Z,3.95
2022-10-10T13:09:17.538Z,4.35
2022-10-10T13:11:54.204Z,4.20
2022-10-10T13:14:22.503Z,4.20
2022-10-10T13:16:52.217Z,4.50
2022-10-10T13:19:25.103Z,4.65
2022-10-10T13:21:54.825Z,4.22
2022-10-10T13:24:30.185Z,3.92
2022-10-10T13:26:58.436Z,4.85
2022-10-10T13:29:34.220Z,4.10
2022-10-10T13:32:05.868Z,4.55
2022-10-10T13:34:36.747Z,4.43
2022-10-10T13:37:07.471Z,4.47
2022-10-10T13:39:37.487Z,4.30
2022-10-10T13:42:09.136Z,4.40
2022-10-10T13:44:52.301Z,4.45
2022-10-10T13:47:51.530Z,4.88
2022-10-10T13:50:34.115Z,3.97
2022-10-10T13:53:24.582Z,4.32
2022-10-10T13:55:58.424Z,4.60
2022-10-10T13:58:27.636Z,3.97
2022-10-10T14:00:57.778Z,3.78
2022-10-10T14:03:26.404Z,3.40
2022-10-10T14:05:54.246Z,3.40
2022-10-10T14:08:28.580Z,3.40
2022-10-10T14:11:01.911Z,3.50
2022-10-10T14:13:33.631Z,3.35
2022-10-10T14:16:23.804Z,3.50
2022-10-10T14:18:51.792Z,3.60
2022-10-10T14:21:20.083Z,3.53
2022-10-10T14:23:47.670Z,3.15
2022-10-10T14:26:19.332Z,3.40
2022-10-10T14:28:48.231Z,3.20
2022-10-10T14:31:17.263Z,2.92
2022-10-10T14:33:44.830Z,3.22
2022-10-10T14:36:13.190Z,3.22
2022-10-10T14:38:40.855Z,3.20
2022-10-10T14:41:13.015Z,3.72
2022-10-10T14:43:45.483Z,3.72
2022-10-10T14:46:22.718Z,3.10
2022-10-10T14:48:50.276Z,3.83
2022-10-10T14:51:33.905Z,4.07
2022-10-10T14:54:13.445Z,3.47
2022-10-10T14:57:07.217Z,3.30
2022-10-10T14:59:49.254Z,3.40
2022-10-10T15:02:19.560Z,3.13
2022-10-10T15:04:47.637Z,3.35
2022-10-10T15:07:16.356Z,3.80
2022-10-10T15:12:42.791Z,3.47
2022-10-10T15:15:12.541Z,3.40
2022-10-10T15:17:42.739Z,3.42
2022-10-10T15:20:12.556Z,3.60
2022-10-10T15:22:40.796Z,3.53
2022-10-10T15:25:09.561Z,3.60
2022-10-10T15:27:37.728Z,3.35
2022-10-10T15:30:06.655Z,3.45
2022-10-10T15:32:38.015Z,3.30
2022-10-10T15:35:06.242Z,4.65
2022-10-10T15:37:33.987Z,4.10
2022-10-10T15:40:01.806Z,3.67
2022-10-10T15:42:29.498Z,3.83
2022-10-10T15:44:57.211Z,4.18
2022-10-10T15:47:24.796Z,3.85
2022-10-10T15:49:52.537Z,4.40
2022-10-10T15:52:23.099Z,4.03
2022-10-10T15:54:51.063Z,4.97
2022-10-10T15:57:19.633Z,4.30
2022-10-10T15:59:47.580Z,5.38
2022-10-10T16:02:17.413Z,4.32
2022-10-10T16:04:46.010Z,4.20
2022-10-10T16:07:28.138Z,4.03
2022-10-10T16:09:58.808Z,4.15
2022-10-10T16:12:26.394Z,4.03
2022-10-10T16:14:54.136Z,4.50
2022-10-10T16:17:23.609Z,4.25
2022-10-10T16:19:51.765Z,4.30
2022-10-10T16:22:19.458Z,5.28
2022-10-10T16:24:58.260Z,6.07
2022-10-10T16:27:32.270Z,4.90
2022-10-10T16:29:59.836Z,5.03
2022-10-10T16:32:28.457Z,5.30
2022-10-10T16:34:56.160Z,4.93
2022-10-10T16:37:23.897Z,9.48
2022-10-10T16:39:51.529Z,9.30
2022-10-10T16:42:19.165Z,7.57
2022-10-10T16:44:46.912Z,4.65
2022-10-10T16:47:14.533Z,5.38
2022-10-10T16:49:43.426Z,5.15
2022-10-10T16:52:10.982Z,5.05
2022-10-10T16:54:38.538Z,4.50
2022-10-10T16:57:06.200Z,4.22
2022-10-10T16:59:34.719Z,3.70
2022-10-10T17:02:02.265Z,4.32
2022-10-10T17:04:29.859Z,4.28
2022-10-10T17:06:57.425Z,3.58
2022-10-10T17:09:24.959Z,4.20
2022-10-10T17:11:52.553Z,3.88
2022-10-10T17:14:20.305Z,4.70
2022-10-10T17:17:11.216Z,4.57
2022-10-10T17:19:42.052Z,4.63
2022-10-10T17:22:09.983Z,5.47
2022-10-10T17:24:50.486Z,4.97
2022-10-10T17:27:18.400Z,5.10
2022-10-10T17:29:46.621Z,4.37
2022-10-10T17:32:17.085Z,4.82
2022-10-10T17:34:57.809Z,4.43
2022-10-10T17:37:28.392Z,5.00
2022-10-10T17:39:56.159Z,4.63
2022-10-10T17:42:23.849Z,4.93
2022-10-10T17:44:56.192Z,4.60
2022-10-10T17:47:23.966Z,6.27
2022-10-10T17:49:51.998Z,6.93
2022-10-10T17:52:21.374Z,5.87
2022-10-10T17:54:52.309Z,6.80
2022-10-10T17:57:20.041Z,5.33
2022-10-10T17:59:47.706Z,6.00
2022-10-10T18:02:17.832Z,5.17
2022-10-10T18:04:45.749Z,6.50
2022-10-10T18:07:14.871Z,5.77
2022-10-10T18:09:42.594Z,6.10
2022-10-10T18:12:10.320Z,5.80
2022-10-10T18:14:37.943Z,6.43
2022-10-10T18:17:05.513Z,5.73
2022-10-10T18:19:41.441Z,5.67
2022-10-10T18:22:16.913Z,6.43
2022-10-10T18:24:44.618Z,6.13
2022-10-10T18:27:12.202Z,6.90
2022-10-10T18:29:39.881Z,7.00
2022-10-10T18:32:07.458Z,7.33
2022-10-10T18:34:35.307Z,8.10
2022-10-10T18:37:04.105Z,6.60
2022-10-10T18:39:33.871Z,8.27
2022-10-10T18:42:03.181Z,7.90
2022-10-10T18:44:31.136Z,7.23
2022-10-10T18:46:58.876Z,7.20
2022-10-10T18:49:26.875Z,8.00
2022-10-10T18:51:55.472Z,8.00
2022-10-10T18:54:23.253Z,7.60
2022-10-10T18:56:51.094Z,7.40
2022-10-10T18:59:22.136Z,7.13
2022-10-10T19:01:52.182Z,8.37
2022-10-10T19:04:21.842Z,8.47
2022-10-10T19:06:56.028Z,8.00
2022-10-10T19:09:25.404Z,7.80
2022-10-10T19:11:53.380Z,7.53
2022-10-10T19:14:21.111Z,8.80
2022-10-10T19:16:48.690Z,9.30
2022-10-10T19:19:18.529Z,7.77
2022-10-10T19:21:47.952Z,8.00
2022-10-10T19:24:19.428Z,7.60
2022-10-10T19:26:52.997Z,8.07
2022-10-10T19:29:20.820Z,7.83
2022-10-10T19:31:48.430Z,7.90
2022-10-10T19:34:16.100Z,7.63
2022-10-10T19:36:44.637Z,7.67
2022-10-10T19:39:12.252Z,7.30
2022-10-10T19:41:39.862Z,8.23
2022-10-10T19:44:08.769Z,7.40
2022-10-10T19:46:37.762Z,7.73
2022-10-10T19:49:05.856Z,7.67
2022-10-10T19:51:33.947Z,7.50
2022-10-10T19:54:01.525Z,8.03
2022-10-10T19:56:29.368Z,8.37
2022-10-10T19:58:59.592Z,8.23
2022-10-10T20:01:30.127Z,7.70
2022-10-10T20:03:58.539Z,7.83
2022-10-10T20:06:27.319Z,7.40
2022-10-10T20:08:57.802Z,8.30
2022-10-10T20:11:26.387Z,7.63
2022-10-10T20:13:55.601Z,7.80
2022-10-10T20:16:26.842Z,8.33
2022-10-10T20:18:56.369Z,8.20
2022-10-10T20:21:31.140Z,8.80
2022-10-10T20:24:05.946Z,7.80
2022-10-10T20:26:33.706Z,8.60
2022-10-10T20:29:01.911Z,7.87
2022-10-10T20:31:31.892Z,8.27
2022-10-10T20:34:00.853Z,8.80
2022-10-10T20:36:30.387Z,8.67
2022-10-10T20:39:09.618Z,8.27
2022-10-10T20:41:38.913Z,8.90
2022-10-10T20:44:08.169Z,8.63
2022-10-10T20:46:37.930Z,8.33
2022-10-10T20:49:11.383Z,8.20
2022-10-10T20:51:39.279Z,8.20
2022-10-10T20:54:07.632Z,7.90
2022-10-10T20:56:35.734Z,7.87
2022-10-10T20:59:03.492Z,7.50
2022-10-10T21:01:31.645Z,8.63
2022-10-10T21:04:02.854Z,7.80
2022-10-10T21:06:32.914Z,7.67
2022-10-10T21:09:03.571Z,8.40
2022-10-10T21:11:31.344Z,8.60
2022-10-10T21:14:00.195Z,8.00
2022-10-10T21:16:37.636Z,8.17
2022-10-10T21:19:07.193Z,8.40
2022-10-10T21:21:36.190Z,8.67
2022-10-10T21:24:06.320Z,10.03
2022-10-10T21:26:37.905Z,9.00
2022-10-10T21:29:06.230Z,9.33
2022-10-10T21:31:36.825Z,8.90
2022-10-10T21:34:07.401Z,9.13
2022-10-10T21:36:36.057Z,8.47
2022-10-10T21:39:06.785Z,9.63
2022-10-10T21:41:35.120Z,9.03
2022-10-10T21:44:02.721Z,9.40
2022-10-10T21:46:36.510Z,9.70
2022-10-10T21:49:07.714Z,10.10
2022-10-10T21:51:45.501Z,10.53
2022-10-10T21:54:13.989Z,10.83
2022-10-10T21:56:41.940Z,11.07
2022-10-10T21:59:10.744Z,11.83
2022-10-10T22:01:38.312Z,11.70
2022-10-10T22:04:06.568Z,11.40
2022-10-10T22:06:34.701Z,12.00
2022-10-10T22:09:02.681Z,11.57
2022-10-10T22:11:32.287Z,11.90
2022-10-10T22:14:02.466Z,11.47
2022-10-10T22:16:33.863Z,12.73
2022-10-10T22:19:02.035Z,13.00
2022-10-10T22:21:31.957Z,14.53
2022-10-10T22:24:02.011Z,14.70
2022-10-10T22:26:30.610Z,15.20
2022-10-10T22:28:58.653Z,14.87
2022-10-10T22:31:26.456Z,14.33
2022-10-10T22:33:57.405Z,13.57
2022-10-10T22:36:24.991Z,13.73
2022-10-10T22:38:52.693Z,14.73
2022-10-10T22:41:20.319Z,17.17
2022-10-10T22:43:48.374Z,19.50
2022-10-10T22:46:16.299Z,18.60
2022-10-10T22:48:43.967Z,17.93
2022-10-10T22:51:14.434Z,17.33
2022-10-10T22:53:43.719Z,16.17
2022-10-10T22:56:15.199Z,16.53
2022-10-10T22:58:43.277Z,17.40
2022-10-10T23:01:16.554Z,17.63
2022-10-10T23:03:46.508Z,18.47
2022-10-10T23:06:14.243Z,17.70
2022-10-10T23:08:41.958Z,17.67
2022-10-10T23:11:09.551Z,17.63
2022-10-10T23:13:41.086Z,18.30
2022-10-10T23:16:09.058Z,16.53
2022-10-10T23:18:36.984Z,16.87
2022-10-10T23:21:04.687Z,17.97
2022-10-10T23:23:32.322Z,17.13
2022-10-10T23:26:03.991Z,18.60
2022-10-10T23:28:31.831Z,20.20
2022-10-10T23:31:05.420Z,22.27
2022-10-10T23:33:36.907Z,22.63
2022-10-10T23:36:10.001Z,21.90
2022-10-10T23:38:37.985Z,18.93
2022-10-10T23:41:06.350Z,17.53
2022-10-10T23:43:33.989Z,15.97
2022-10-10T23:46:02.129Z,13.53
2022-10-10T23:48:30.234Z,12.73
2022-10-10T23:50:57.962Z,10.67
2022-10-10T23:53:25.595Z,12.03
2022-10-10T23:55:53.210Z,11.13
2022-10-10T23:58:20.804Z,11.30
